sensor_id;sensor_type;location;lat;lon;timestamp;P1;durP1;ratioP1;P2;durP2;ratioP2
58898;SDS011;44680;48.342;7.856;2022-10-01T00:01:01;7.18;;;4.20;;
58898;SDS011;44680;48.342;7.856;2022-10-01T00:03:27;5.60;;;4.20;;
58898;SDS011;44680;48.342;7.856;2022-10-01T00:05:57;7.82;;;4.10;;
58898;SDS011;44680;48.342;7.856;2022-10-01T00:08:26;6.38;;;4.00;;
58898;SDS011;44680;48.342;7.856;2022-10-01T00:10:52;6.45;;;4.38;;
58898;SDS011;44680;48.342;7.856;2022-10-01T00:13:17;7.38;;;4.60;;
58898;SDS011;44680;48.342;7.856;2022-10-01T00:15:43;6.93;;;4.15;;
58898;SDS011;44680;48.342;7.856;2022-10-01T00:18:08;7.88;;;4.47;;
58898;SDS011;44680;48.342;7.856;2022-10-01T00:20:34;8.45;;;4.13;;
58898;SDS011;44680;48.342;7.856;2022-10-01T00:22:59;8.93;;;4.68;;
58898;SDS011;44680;48.342;7.856;2022-10-01T00:25:24;5.78;;;4.57;;
58898;SDS011;44680;48.342;7.856;2022-10-01T00:27:50;6.20;;;5.05;;
58898;SDS011;44680;48.342;7.856;2022-10-01T00:30:15;5.95;;;4.63;;
58898;SDS011;44680;48.342;7.856;2022-10-01T00:32:41;6.65;;;4.75;;
58898;SDS011;44680;48.342;7.856;2022-10-01T00:35:07;5.72;;;4.70;;
58898;SDS011;44680;48.342;7.856;2022-10-01T00:37:36;6.35;;;4.70;;
58898;SDS011;44680;48.342;7.856;2022-10-01T00:40:02;8.95;;;4.72;;
58898;SDS011;44680;48.342;7.856;2022-10-01T00:42:29;7.15;;;5.00;;
58898;SDS011;44680;48.342;7.856;2022-10-01T00:44:54;6.00;;;4.72;;
58898;SDS011;44680;48.342;7.856;2022-10-01T00:47:28;6.50;;;4.57;;
58898;SDS011;44680;48.342;7.856;2022-10-01T00:50:00;9.35;;;4.90;;
58898;SDS011;44680;48.342;7.856;2022-10-01T00:52:32;5.78;;;4.38;;
58898;SDS011;44680;48.342;7.856;2022-10-01T00:57:44;5.05;;;4.15;;
58898;SDS011;44680;48.342;7.856;2022-10-01T01:00:10;8.85;;;4.72;;
58898;SDS011;44680;48.342;7.856;2022-10-01T01:02:37;6.35;;;4.43;;
58898;SDS011;44680;48.342;7.856;2022-10-01T01:05:02;5.90;;;4.55;;
58898;SDS011;44680;48.342;7.856;2022-10-01T01:07:29;7.00;;;4.38;;
58898;SDS011;44680;48.342;7.856;2022-10-01T01:09:55;5.15;;;4.32;;
58898;SDS011;44680;48.342;7.856;2022-10-01T01:15:04;8.38;;;4.43;;
58898;SDS011;44680;48.342;7.856;2022-10-01T01:17:41;5.55;;;4.28;;
58898;SDS011;44680;48.342;7.856;2022-10-01T01:25:57;5.75;;;4.22;;
58898;SDS011;44680;48.342;7.856;2022-10-01T01:28:46;13.23;;;3.95;;
58898;SDS011;44680;48.342;7.856;2022-10-01T01:31:16;5.82;;;3.80;;
58898;SDS011;44680;48.342;7.856;2022-10-01T01:33:46;4.60;;;3.70;;
58898;SDS011;44680;48.342;7.856;2022-10-01T01:36:14;4.70;;;3.55;;
58898;SDS011;44680;48.342;7.856;2022-10-01T01:38:47;5.68;;;4.10;;
58898;SDS011;44680;48.342;7.856;2022-10-01T01:41:16;5.13;;;3.70;;
58898;SDS011;44680;48.342;7.856;2022-10-01T01:43:44;4.85;;;3.72;;
58898;SDS011;44680;48.342;7.856;2022-10-01T01:46:12;5.22;;;2.97;;
58898;SDS011;44680;48.342;7.856;2022-10-01T01:48:41;5.78;;;3.42;;
58898;SDS011;44680;48.342;7.856;2022-10-01T01:53:57;4.00;;;3.30;;
58898;SDS011;44680;48.342;7.856;2022-10-01T01:56:23;8.15;;;3.50;;
58898;SDS011;44680;48.342;7.856;2022-10-01T01:58:48;3.65;;;3.35;;
58898;SDS011;44680;48.342;7.856;2022-10-01T02:04:17;3.80;;;3.47;;
58898;SDS011;44680;48.342;7.856;2022-10-01T02:09:30;3.65;;;3.28;;
58898;SDS011;44680;48.342;7.856;2022-10-01T02:14:47;3.58;;;3.28;;
58898;SDS011;44680;48.342;7.856;2022-10-01T02:17:24;5.30;;;3.10;;
58898;SDS011;44680;48.342;7.856;2022-10-01T02:19:59;4.22;;;3.42;;
58898;SDS011;44680;48.342;7.856;2022-10-01T02:22:31;3.28;;;2.97;;
58898;SDS011;44680;48.342;7.856;2022-10-01T02:25:02;5.40;;;3.38;;
58898;SDS011;44680;48.342;7.856;2022-10-01T02:29:56;6.05;;;3.67;;
58898;SDS011;44680;48.342;7.856;2022-10-01T02:32:22;4.35;;;3.22;;
58898;SDS011;44680;48.342;7.856;2022-10-01T02:34:48;4.57;;;3.05;;
58898;SDS011;44680;48.342;7.856;2022-10-01T02:37:14;4.63;;;3.28;;
58898;SDS011;44680;48.342;7.856;2022-10-01T02:39:41;4.05;;;3.20;;
58898;SDS011;44680;48.342;7.856;2022-10-01T02:42:08;3.17;;;2.90;;
58898;SDS011;44680;48.342;7.856;2022-10-01T02:44:35;3.50;;;3.20;;
58898;SDS011;44680;48.342;7.856;2022-10-01T02:47:03;4.95;;;2.97;;
58898;SDS011;44680;48.342;7.856;2022-10-01T02:49:31;3.33;;;2.90;;
58898;SDS011;44680;48.342;7.856;2022-10-01T02:52:08;3.00;;;2.80;;
58898;SDS011;44680;48.342;7.856;2022-10-01T02:54:49;4.38;;;3.13;;
58898;SDS011;44680;48.342;7.856;2022-10-01T02:57:17;3.13;;;2.88;;
58898;SDS011;44680;48.342;7.856;2022-10-01T02:59:51;3.30;;;3.00;;
58898;SDS011;44680;48.342;7.856;2022-10-01T03:02:18;3.33;;;2.70;;
58898;SDS011;44680;48.342;7.856;2022-10-01T03:04:44;3.50;;;2.88;;
58898;SDS011;44680;48.342;7.856;2022-10-01T03:07:11;3.35;;;3.05;;
58898;SDS011;44680;48.342;7.856;2022-10-01T03:09:36;5.70;;;3.30;;
58898;SDS011;44680;48.342;7.856;2022-10-01T03:12:02;3.20;;;3.00;;
58898;SDS011;44680;48.342;7.856;2022-10-01T03:14:27;3.33;;;3.03;;
58898;SDS011;44680;48.342;7.856;2022-10-01T03:16:53;4.32;;;2.83;;
58898;SDS011;44680;48.342;7.856;2022-10-01T03:19:19;3.92;;;2.92;;
58898;SDS011;44680;48.342;7.856;2022-10-01T03:21:44;4.15;;;3.00;;
58898;SDS011;44680;48.342;7.856;2022-10-01T03:24:10;3.45;;;3.15;;
58898;SDS011;44680;48.342;7.856;2022-10-01T03:26:35;4.65;;;3.28;;
58898;SDS011;44680;48.342;7.856;2022-10-01T03:29:01;4.30;;;3.03;;
58898;SDS011;44680;48.342;7.856;2022-10-01T03:31:27;3.35;;;3.05;;
58898;SDS011;44680;48.342;7.856;2022-10-01T03:33:52;4.43;;;2.67;;
58898;SDS011;44680;48.342;7.856;2022-10-01T03:36:17;3.47;;;2.80;;
58898;SDS011;44680;48.342;7.856;2022-10-01T03:38:43;4.47;;;3.13;;
58898;SDS011;44680;48.342;7.856;2022-10-01T03:41:08;4.55;;;3.05;;
58898;SDS011;44680;48.342;7.856;2022-10-01T03:43:33;4.82;;;2.95;;
58898;SDS011;44680;48.342;7.856;2022-10-01T03:45:59;3.47;;;2.90;;
58898;SDS011;44680;48.342;7.856;2022-10-01T03:48:25;5.20;;;3.10;;
58898;SDS011;44680;48.342;7.856;2022-10-01T03:50:55;3.80;;;3.42;;
58898;SDS011;44680;48.342;7.856;2022-10-01T03:53:21;3.35;;;3.05;;
58898;SDS011;44680;48.342;7.856;2022-10-01T03:55:47;6.40;;;2.70;;
58898;SDS011;44680;48.342;7.856;2022-10-01T03:58:12;3.65;;;3.28;;
58898;SDS011;44680;48.342;7.856;2022-10-01T04:00:37;3.53;;;3.13;;
58898;SDS011;44680;48.342;7.856;2022-10-01T04:03:03;4.50;;;2.95;;
58898;SDS011;44680;48.342;7.856;2022-10-01T04:05:28;3.22;;;2.78;;
58898;SDS011;44680;48.342;7.856;2022-10-01T04:07:53;2.90;;;2.70;;
58898;SDS011;44680;48.342;7.856;2022-10-01T04:10:19;3.83;;;3.20;;
58898;SDS011;44680;48.342;7.856;2022-10-01T04:12:44;5.35;;;3.08;;
58898;SDS011;44680;48.342;7.856;2022-10-01T04:15:09;4.68;;;2.90;;
58898;SDS011;44680;48.342;7.856;2022-10-01T04:17:35;4.35;;;2.85;;
58898;SDS011;44680;48.342;7.856;2022-10-01T04:20:00;3.88;;;3.05;;
58898;SDS011;44680;48.342;7.856;2022-10-01T04:22:26;3.72;;;2.80;;
58898;SDS011;44680;48.342;7.856;2022-10-01T04:24:51;4.43;;;3.13;;
58898;SDS011;44680;48.342;7.856;2022-10-01T04:27:17;4.38;;;2.95;;
58898;SDS011;44680;48.342;7.856;2022-10-01T04:29:43;3.05;;;2.80;;
58898;SDS011;44680;48.342;7.856;2022-10-01T04:32:08;2.80;;;2.50;;
58898;SDS011;44680;48.342;7.856;2022-10-01T04:34:33;2.85;;;2.60;;
58898;SDS011;44680;48.342;7.856;2022-10-01T04:37:17;3.00;;;2.80;;
58898;SDS011;44680;48.342;7.856;2022-10-01T04:39:42;3.10;;;2.75;;
58898;SDS011;44680;48.342;7.856;2022-10-01T04:42:08;4.00;;;2.60;;
58898;SDS011;44680;48.342;7.856;2022-10-01T04:44:33;3.33;;;3.03;;
58898;SDS011;44680;48.342;7.856;2022-10-01T04:46:59;3.13;;;2.83;;
58898;SDS011;44680;48.342;7.856;2022-10-01T04:49:24;2.95;;;2.75;;
58898;SDS011;44680;48.342;7.856;2022-10-01T04:51:49;6.80;;;2.97;;
58898;SDS011;44680;48.342;7.856;2022-10-01T04:54:15;6.75;;;3.75;;
58898;SDS011;44680;48.342;7.856;2022-10-01T04:56:40;5.97;;;3.47;;
58898;SDS011;44680;48.342;7.856;2022-10-01T04:59:05;3.50;;;3.20;;
58898;SDS011;44680;48.342;7.856;2022-10-01T05:01:31;5.10;;;3.22;;
58898;SDS011;44680;48.342;7.856;2022-10-01T05:03:56;8.23;;;3.15;;
58898;SDS011;44680;48.342;7.856;2022-10-01T05:06:22;4.63;;;2.78;;
58898;SDS011;44680;48.342;7.856;2022-10-01T05:08:47;6.03;;;3.40;;
58898;SDS011;44680;48.342;7.856;2022-10-01T05:11:13;3.88;;;3.38;;
58898;SDS011;44680;48.342;7.856;2022-10-01T05:13:39;3.78;;;3.33;;
58898;SDS011;44680;48.342;7.856;2022-10-01T05:16:05;6.65;;;3.17;;
58898;SDS011;44680;48.342;7.856;2022-10-01T05:18:31;4.18;;;3.20;;
58898;SDS011;44680;48.342;7.856;2022-10-01T05:20:56;4.60;;;3.42;;
58898;SDS011;44680;48.342;7.856;2022-10-01T05:23:22;3.22;;;2.97;;
58898;SDS011;44680;48.342;7.856;2022-10-01T05:25:47;4.53;;;3.03;;
58898;SDS011;44680;48.342;7.856;2022-10-01T05:28:13;5.70;;;3.60;;
58898;SDS011;44680;48.342;7.856;2022-10-01T05:30:38;5.15;;;3.08;;
58898;SDS011;44680;48.342;7.856;2022-10-01T05:33:04;4.65;;;2.92;;
58898;SDS011;44680;48.342;7.856;2022-10-01T05:35:29;3.47;;;3.17;;
58898;SDS011;44680;48.342;7.856;2022-10-01T05:37:55;3.78;;;3.33;;
58898;SDS011;44680;48.342;7.856;2022-10-01T05:40:22;3.38;;;3.13;;
58898;SDS011;44680;48.342;7.856;2022-10-01T05:42:51;3.45;;;3.10;;
58898;SDS011;44680;48.342;7.856;2022-10-01T05:45:16;4.40;;;2.95;;
58898;SDS011;44680;48.342;7.856;2022-10-01T05:47:44;3.95;;;3.35;;
58898;SDS011;44680;48.342;7.856;2022-10-01T05:50:10;4.85;;;3.53;;
58898;SDS011;44680;48.342;7.856;2022-10-01T05:52:35;4.03;;;3.63;;
58898;SDS011;44680;48.342;7.856;2022-10-01T05:55:01;3.45;;;2.92;;
58898;SDS011;44680;48.342;7.856;2022-10-01T05:57:26;5.50;;;3.42;;
58898;SDS011;44680;48.342;7.856;2022-10-01T05:59:51;5.35;;;3.30;;
58898;SDS011;44680;48.342;7.856;2022-10-01T06:02:16;7.43;;;2.97;;
58898;SDS011;44680;48.342;7.856;2022-10-01T06:04:42;5.30;;;3.38;;
58898;SDS011;44680;48.342;7.856;2022-10-01T06:07:07;3.40;;;3.10;;
58898;SDS011;44680;48.342;7.856;2022-10-01T06:09:33;3.60;;;3.10;;
58898;SDS011;44680;48.342;7.856;2022-10-01T06:11:58;4.32;;;3.28;;
58898;SDS011;44680;48.342;7.856;2022-10-01T06:14:23;3.00;;;2.80;;
58898;SDS011;44680;48.342;7.856;2022-10-01T06:16:51;3.97;;;2.83;;
58898;SDS011;44680;48.342;7.856;2022-10-01T06:19:17;3.95;;;3.35;;
58898;SDS011;44680;48.342;7.856;2022-10-01T06:21:43;3.00;;;2.80;;
58898;SDS011;44680;48.342;7.856;2022-10-01T06:24:08;2.90;;;2.70;;
58898;SDS011;44680;48.342;7.856;2022-10-01T06:26:34;5.18;;;3.40;;
58898;SDS011;44680;48.342;7.856;2022-10-01T06:29:00;3.13;;;2.83;;
58898;SDS011;44680;48.342;7.856;2022-10-01T06:31:27;5.75;;;2.90;;
58898;SDS011;44680;48.342;7.856;2022-10-01T06:33:53;4.40;;;2.88;;
58898;SDS011;44680;48.342;7.856;2022-10-01T06:36:18;7.10;;;2.95;;
58898;SDS011;44680;48.342;7.856;2022-10-01T06:38:46;3.13;;;2.88;;
58898;SDS011;44680;48.342;7.856;2022-10-01T06:41:12;3.00;;;2.80;;
58898;SDS011;44680;48.342;7.856;2022-10-01T06:43:38;4.28;;;2.92;;
58898;SDS011;44680;48.342;7.856;2022-10-01T06:46:03;3.60;;;2.30;;
58898;SDS011;44680;48.342;7.856;2022-10-01T06:48:29;4.07;;;2.80;;
58898;SDS011;44680;48.342;7.856;2022-10-01T06:50:55;4.53;;;2.95;;
58898;SDS011;44680;48.342;7.856;2022-10-01T06:53:21;3.97;;;3.20;;
58898;SDS011;44680;48.342;7.856;2022-10-01T06:55:46;3.50;;;2.92;;
58898;SDS011;44680;48.342;7.856;2022-10-01T07:00:40;2.92;;;2.67;;
58898;SDS011;44680;48.342;7.856;2022-10-01T07:03:07;5.13;;;3.25;;
58898;SDS011;44680;48.342;7.856;2022-10-01T07:05:35;5.72;;;3.15;;
58898;SDS011;44680;48.342;7.856;2022-10-01T07:08:01;3.08;;;2.78;;
58898;SDS011;44680;48.342;7.856;2022-10-01T07:10:26;5.53;;;2.90;;
58898;SDS011;44680;48.342;7.856;2022-10-01T07:12:51;4.10;;;2.83;;
58898;SDS011;44680;48.342;7.856;2022-10-01T07:15:18;3.42;;;2.90;;
58898;SDS011;44680;48.342;7.856;2022-10-01T07:17:45;7.55;;;3.10;;
58898;SDS011;44680;48.342;7.856;2022-10-01T07:20:15;3.65;;;3.08;;
58898;SDS011;44680;48.342;7.856;2022-10-01T07:22:42;5.18;;;2.60;;
58898;SDS011;44680;48.342;7.856;2022-10-01T07:25:08;6.15;;;2.80;;
58898;SDS011;44680;48.342;7.856;2022-10-01T07:27:34;3.40;;;2.67;;
58898;SDS011;44680;48.342;7.856;2022-10-01T07:29:59;3.30;;;3.00;;
58898;SDS011;44680;48.342;7.856;2022-10-01T07:32:25;3.88;;;2.80;;
58898;SDS011;44680;48.342;7.856;2022-10-01T07:34:50;2.80;;;2.60;;
58898;SDS011;44680;48.342;7.856;2022-10-01T07:37:15;3.38;;;3.08;;
58898;SDS011;44680;48.342;7.856;2022-10-01T07:39:41;4.38;;;2.80;;
58898;SDS011;44680;48.342;7.856;2022-10-01T07:42:06;6.32;;;2.97;;
58898;SDS011;44680;48.342;7.856;2022-10-01T07:44:31;4.63;;;2.88;;
58898;SDS011;44680;48.342;7.856;2022-10-01T07:46:57;3.50;;;3.20;;
58898;SDS011;44680;48.342;7.856;2022-10-01T07:49:22;3.97;;;3.05;;
58898;SDS011;44680;48.342;7.856;2022-10-01T07:51:52;4.10;;;3.05;;
58898;SDS011;44680;48.342;7.856;2022-10-01T07:54:18;8.07;;;3.30;;
58898;SDS011;44680;48.342;7.856;2022-10-01T07:56:45;2.97;;;2.78;;
58898;SDS011;44680;48.342;7.856;2022-10-01T07:59:12;3.15;;;2.85;;
58898;SDS011;44680;48.342;7.856;2022-10-01T08:01:37;6.55;;;3.17;;
58898;SDS011;44680;48.342;7.856;2022-10-01T08:04:03;3.13;;;2.65;;
58898;SDS011;44680;48.342;7.856;2022-10-01T08:06:49;3.30;;;3.03;;
58898;SDS011;44680;48.342;7.856;2022-10-01T08:09:15;5.82;;;2.90;;
58898;SDS011;44680;48.342;7.856;2022-10-01T08:11:40;3.65;;;2.70;;
58898;SDS011;44680;48.342;7.856;2022-10-01T08:14:05;6.45;;;3.72;;
58898;SDS011;44680;48.342;7.856;2022-10-01T08:16:31;3.20;;;2.90;;
58898;SDS011;44680;48.342;7.856;2022-10-01T08:18:58;6.32;;;2.72;;
58898;SDS011;44680;48.342;7.856;2022-10-01T08:21:23;8.13;;;3.47;;
58898;SDS011;44680;48.342;7.856;2022-10-01T08:23:50;4.72;;;2.97;;
58898;SDS011;44680;48.342;7.856;2022-10-01T08:26:15;5.55;;;2.60;;
58898;SDS011;44680;48.342;7.856;2022-10-01T08:28:40;2.70;;;2.50;;
58898;SDS011;44680;48.342;7.856;2022-10-01T08:31:06;4.55;;;2.97;;
58898;SDS011;44680;48.342;7.856;2022-10-01T08:33:34;7.35;;;2.65;;
58898;SDS011;44680;48.342;7.856;2022-10-01T08:36:02;3.42;;;2.75;;
58898;SDS011;44680;48.342;7.856;2022-10-01T08:38:28;3.70;;;3.00;;
58898;SDS011;44680;48.342;7.856;2022-10-01T08:40:53;3.58;;;2.90;;
58898;SDS011;44680;48.342;7.856;2022-10-01T08:46:03;5.10;;;2.70;;
58898;SDS011;44680;48.342;7.856;2022-10-01T08:54:55;3.75;;;2.92;;
58898;SDS011;44680;48.342;7.856;2022-10-01T08:57:04;3.70;;;2.78;;
58898;SDS011;44680;48.342;7.856;2022-10-01T09:04:49;2.80;;;2.60;;
58898;SDS011;44680;48.342;7.856;2022-10-01T09:07:24;7.03;;;3.15;;
58898;SDS011;44680;48.342;7.856;2022-10-01T09:10:19;4.40;;;2.78;;
58898;SDS011;44680;48.342;7.856;2022-10-01T09:15:18;3.60;;;2.90;;
58898;SDS011;44680;48.342;7.856;2022-10-01T09:20:37;4.95;;;2.97;;
58898;SDS011;44680;48.342;7.856;2022-10-01T09:23:10;4.60;;;2.40;;
58898;SDS011;44680;48.342;7.856;2022-10-01T09:25:41;2.75;;;2.42;;
58898;SDS011;44680;48.342;7.856;2022-10-01T09:28:18;3.13;;;2.80;;
58898;SDS011;44680;48.342;7.856;2022-10-01T09:30:53;6.20;;;2.80;;
58898;SDS011;44680;48.342;7.856;2022-10-01T09:33:22;2.67;;;2.15;;
58898;SDS011;44680;48.342;7.856;2022-10-01T09:38:42;2.35;;;2.17;;
58898;SDS011;44680;48.342;7.856;2022-10-01T09:41:10;2.60;;;2.40;;
58898;SDS011;44680;48.342;7.856;2022-10-01T09:43:37;2.55;;;2.33;;
58898;SDS011;44680;48.342;7.856;2022-10-01T09:46:03;3.03;;;2.67;;
58898;SDS011;44680;48.342;7.856;2022-10-01T09:48:57;4.47;;;2.40;;
58898;SDS011;44680;48.342;7.856;2022-10-01T09:51:29;3.30;;;2.45;;
58898;SDS011;44680;48.342;7.856;2022-10-01T09:54:08;4.20;;;2.80;;
58898;SDS011;44680;48.342;7.856;2022-10-01T09:56:47;3.13;;;2.83;;
58898;SDS011;44680;48.342;7.856;2022-10-01T09:59:21;4.78;;;2.80;;
58898;SDS011;44680;48.342;7.856;2022-10-01T10:01:57;2.75;;;2.28;;
58898;SDS011;44680;48.342;7.856;2022-10-01T10:04:25;3.13;;;2.53;;
58898;SDS011;44680;48.342;7.856;2022-10-01T10:06:51;2.55;;;2.35;;
58898;SDS011;44680;48.342;7.856;2022-10-01T10:09:26;3.03;;;2.70;;
58898;SDS011;44680;48.342;7.856;2022-10-01T10:11:53;6.03;;;4.20;;
58898;SDS011;44680;48.342;7.856;2022-10-01T10:14:23;15.15;;;6.93;;
58898;SDS011;44680;48.342;7.856;2022-10-01T10:16:56;16.27;;;7.47;;
58898;SDS011;44680;48.342;7.856;2022-10-01T10:19:23;9.25;;;5.38;;
58898;SDS011;44680;48.342;7.856;2022-10-01T10:21:54;6.63;;;4.32;;
58898;SDS011;44680;48.342;7.856;2022-10-01T10:24:25;8.80;;;5.40;;
58898;SDS011;44680;48.342;7.856;2022-10-01T10:26:56;17.92;;;7.78;;
58898;SDS011;44680;48.342;7.856;2022-10-01T10:31:52;22.42;;;9.20;;
58898;SDS011;44680;48.342;7.856;2022-10-01T10:34:31;16.90;;;7.50;;
58898;SDS011;44680;48.342;7.856;2022-10-01T10:36:59;12.48;;;6.10;;
58898;SDS011;44680;48.342;7.856;2022-10-01T10:39:33;9.20;;;4.93;;
58898;SDS011;44680;48.342;7.856;2022-10-01T10:42:00;6.55;;;4.03;;
58898;SDS011;44680;48.342;7.856;2022-10-01T10:44:29;9.23;;;4.10;;
58898;SDS011;44680;48.342;7.856;2022-10-01T10:46:59;5.38;;;3.80;;
58898;SDS011;44680;48.342;7.856;2022-10-01T10:49:26;8.02;;;4.47;;
58898;SDS011;44680;48.342;7.856;2022-10-01T10:51:56;4.07;;;3.22;;
58898;SDS011;44680;48.342;7.856;2022-10-01T10:56:53;4.10;;;3.15;;
58898;SDS011;44680;48.342;7.856;2022-10-01T10:59:20;4.13;;;3.20;;
58898;SDS011;44680;48.342;7.856;2022-10-01T11:01:46;3.15;;;2.88;;
58898;SDS011;44680;48.342;7.856;2022-10-01T11:04:36;3.05;;;2.78;;
58898;SDS011;44680;48.342;7.856;2022-10-01T11:07:07;4.32;;;3.25;;
58898;SDS011;44680;48.342;7.856;2022-10-01T11:09:38;7.07;;;4.03;;
58898;SDS011;44680;48.342;7.856;2022-10-01T11:12:29;3.25;;;2.90;;
58898;SDS011;44680;48.342;7.856;2022-10-01T11:15:18;2.78;;;2.58;;
58898;SDS011;44680;48.342;7.856;2022-10-01T11:24:01;2.67;;;2.47;;
58898;SDS011;44680;48.342;7.856;2022-10-01T11:29:18;2.90;;;2.70;;
58898;SDS011;44680;48.342;7.856;2022-10-01T11:31:52;3.15;;;2.83;;
58898;SDS011;44680;48.342;7.856;2022-10-01T11:39:45;2.90;;;2.67;;
58898;SDS011;44680;48.342;7.856;2022-10-01T11:42:16;6.90;;;2.70;;
58898;SDS011;44680;48.342;7.856;2022-10-01T11:47:15;4.10;;;2.38;;
58898;SDS011;44680;48.342;7.856;2022-10-01T11:50:03;2.75;;;2.45;;
58898;SDS011;44680;48.342;7.856;2022-10-01T11:55:11;4.30;;;2.70;;
58898;SDS011;44680;48.342;7.856;2022-10-01T11:58:40;2.45;;;2.25;;
58898;SDS011;44680;48.342;7.856;2022-10-01T12:06:15;8.02;;;3.22;;
58898;SDS011;44680;48.342;7.856;2022-10-01T12:08:41;7.18;;;3.58;;
58898;SDS011;44680;48.342;7.856;2022-10-01T12:11:17;3.88;;;2.70;;
58898;SDS011;44680;48.342;7.856;2022-10-01T12:13:55;2.60;;;2.40;;
58898;SDS011;44680;48.342;7.856;2022-10-01T12:16:35;3.40;;;2.53;;
58898;SDS011;44680;48.342;7.856;2022-10-01T12:21:38;2.20;;;2.10;;
58898;SDS011;44680;48.342;7.856;2022-10-01T12:24:06;2.10;;;1.80;;
58898;SDS011;44680;48.342;7.856;2022-10-01T12:27:03;3.42;;;3.00;;
58898;SDS011;44680;48.342;7.856;2022-10-01T12:32:28;3.17;;;2.85;;
58898;SDS011;44680;48.342;7.856;2022-10-01T12:40:45;1.63;;;1.52;;
58898;SDS011;44680;48.342;7.856;2022-10-01T12:52:55;4.88;;;1.85;;
58898;SDS011;44680;48.342;7.856;2022-10-01T13:00:27;2.03;;;1.42;;
58898;SDS011;44680;48.342;7.856;2022-10-01T13:05:57;5.07;;;2.40;;
58898;SDS011;44680;48.342;7.856;2022-10-01T13:09:08;1.70;;;1.60;;
58898;SDS011;44680;48.342;7.856;2022-10-01T13:14:14;3.10;;;1.63;;
58898;SDS011;44680;48.342;7.856;2022-10-01T13:19:22;10.05;;;5.45;;
58898;SDS011;44680;48.342;7.856;2022-10-01T13:24:49;3.28;;;2.60;;
58898;SDS011;44680;48.342;7.856;2022-10-01T13:27:41;4.30;;;3.63;;
58898;SDS011;44680;48.342;7.856;2022-10-01T13:30:19;2.75;;;2.55;;
58898;SDS011;44680;48.342;7.856;2022-10-01T13:32:51;3.35;;;2.58;;
58898;SDS011;44680;48.342;7.856;2022-10-01T13:35:21;3.03;;;1.98;;
58898;SDS011;44680;48.342;7.856;2022-10-01T13:37:57;4.10;;;2.80;;
58898;SDS011;44680;48.342;7.856;2022-10-01T13:40:24;9.82;;;5.15;;
58898;SDS011;44680;48.342;7.856;2022-10-01T13:42:58;4.45;;;3.25;;
58898;SDS011;44680;48.342;7.856;2022-10-01T13:45:29;5.68;;;4.10;;
58898;SDS011;44680;48.342;7.856;2022-10-01T13:48:04;10.35;;;6.03;;
58898;SDS011;44680;48.342;7.856;2022-10-01T13:50:31;5.45;;;4.35;;
58898;SDS011;44680;48.342;7.856;2022-10-01T13:53:16;2.25;;;2.05;;
58898;SDS011;44680;48.342;7.856;2022-10-01T13:55:43;3.58;;;2.45;;
58898;SDS011;44680;48.342;7.856;2022-10-01T14:00:53;6.97;;;4.37;;
58898;SDS011;44680;48.342;7.856;2022-10-01T14:03:29;5.63;;;3.33;;
58898;SDS011;44680;48.342;7.856;2022-10-01T14:06:00;15.60;;;7.80;;
58898;SDS011;44680;48.342;7.856;2022-10-01T14:08:28;17.92;;;8.60;;
58898;SDS011;44680;48.342;7.856;2022-10-01T14:11:01;8.48;;;4.57;;
58898;SDS011;44680;48.342;7.856;2022-10-01T14:13:48;13.40;;;6.90;;
58898;SDS011;44680;48.342;7.856;2022-10-01T14:16:39;11.68;;;4.43;;
58898;SDS011;44680;48.342;7.856;2022-10-01T14:19:07;11.13;;;5.57;;
58898;SDS011;44680;48.342;7.856;2022-10-01T14:35:31;6.82;;;4.50;;
58898;SDS011;44680;48.342;7.856;2022-10-01T14:37:59;5.18;;;3.45;;
58898;SDS011;44680;48.342;7.856;2022-10-01T14:40:25;22.10;;;8.98;;
58898;SDS011;44680;48.342;7.856;2022-10-01T14:43:00;4.32;;;3.53;;
58898;SDS011;44680;48.342;7.856;2022-10-01T14:45:27;11.35;;;5.90;;
58898;SDS011;44680;48.342;7.856;2022-10-01T14:48:00;6.40;;;3.90;;
58898;SDS011;44680;48.342;7.856;2022-10-01T14:50:27;2.60;;;2.40;;
58898;SDS011;44680;48.342;7.856;2022-10-01T14:52:52;4.00;;;3.03;;
58898;SDS011;44680;48.342;7.856;2022-10-01T14:55:19;2.00;;;1.90;;
58898;SDS011;44680;48.342;7.856;2022-10-01T14:57:47;3.38;;;2.80;;
58898;SDS011;44680;48.342;7.856;2022-10-01T15:00:15;3.97;;;3.50;;
58898;SDS011;44680;48.342;7.856;2022-10-01T15:02:49;2.10;;;2.00;;
58898;SDS011;44680;48.342;7.856;2022-10-01T15:05:27;2.40;;;2.20;;
58898;SDS011;44680;48.342;7.856;2022-10-01T15:08:00;2.55;;;2.30;;
58898;SDS011;44680;48.342;7.856;2022-10-01T15:10:35;2.47;;;2.20;;
58898;SDS011;44680;48.342;7.856;2022-10-01T15:13:00;2.60;;;2.40;;
58898;SDS011;44680;48.342;7.856;2022-10-01T15:15:27;2.50;;;1.90;;
58898;SDS011;44680;48.342;7.856;2022-10-01T15:17:55;2.72;;;2.42;;
58898;SDS011;44680;48.342;7.856;2022-10-01T15:20:21;4.80;;;3.05;;
58898;SDS011;44680;48.342;7.856;2022-10-01T15:22:47;2.75;;;2.55;;
58898;SDS011;44680;48.342;7.856;2022-10-01T15:25:20;2.35;;;2.17;;
58898;SDS011;44680;48.342;7.856;2022-10-01T15:27:47;3.00;;;2.13;;
58898;SDS011;44680;48.342;7.856;2022-10-01T15:30:14;2.20;;;2.10;;
58898;SDS011;44680;48.342;7.856;2022-10-01T15:32:42;3.05;;;2.65;;
58898;SDS011;44680;48.342;7.856;2022-10-01T15:35:11;3.13;;;2.45;;
58898;SDS011;44680;48.342;7.856;2022-10-01T15:37:39;2.38;;;2.13;;
58898;SDS011;44680;48.342;7.856;2022-10-01T15:40:05;4.93;;;2.80;;
58898;SDS011;44680;48.342;7.856;2022-10-01T15:42:33;20.92;;;6.72;;
58898;SDS011;44680;48.342;7.856;2022-10-01T15:47:31;15.95;;;5.18;;
58898;SDS011;44680;48.342;7.856;2022-10-01T15:50:02;17.92;;;5.38;;
58898;SDS011;44680;48.342;7.856;2022-10-01T15:52:32;23.77;;;7.65;;
58898;SDS011;44680;48.342;7.856;2022-10-01T15:57:56;7.05;;;2.97;;
58898;SDS011;44680;48.342;7.856;2022-10-01T16:06:22;33.83;;;8.88;;
58898;SDS011;44680;48.342;7.856;2022-10-01T16:11:30;12.82;;;4.53;;
58898;SDS011;44680;48.342;7.856;2022-10-01T16:19:48;5.07;;;2.20;;
58898;SDS011;44680;48.342;7.856;2022-10-01T16:24:46;3.83;;;2.58;;
58898;SDS011;44680;48.342;7.856;2022-10-01T16:27:17;11.38;;;3.45;;
58898;SDS011;44680;48.342;7.856;2022-10-01T16:29:53;15.00;;;4.70;;
58898;SDS011;44680;48.342;7.856;2022-10-01T16:32:20;6.45;;;3.15;;
58898;SDS011;44680;48.342;7.856;2022-10-01T16:34:46;6.25;;;2.85;;
58898;SDS011;44680;48.342;7.856;2022-10-01T16:37:11;1.70;;;1.60;;
58898;SDS011;44680;48.342;7.856;2022-10-01T16:39:36;6.03;;;2.45;;
58898;SDS011;44680;48.342;7.856;2022-10-01T16:42:02;8.25;;;3.22;;
58898;SDS011;44680;48.342;7.856;2022-10-01T16:44:28;7.45;;;3.50;;
58898;SDS011;44680;48.342;7.856;2022-10-01T16:46:53;7.85;;;3.33;;
58898;SDS011;44680;48.342;7.856;2022-10-01T16:49:20;3.05;;;2.35;;
58898;SDS011;44680;48.342;7.856;2022-10-01T16:51:49;13.65;;;5.70;;
58898;SDS011;44680;48.342;7.856;2022-10-01T16:54:20;6.72;;;3.50;;
58898;SDS011;44680;48.342;7.856;2022-10-01T16:56:47;4.60;;;2.65;;
58898;SDS011;44680;48.342;7.856;2022-10-01T16:59:14;3.65;;;2.15;;
58898;SDS011;44680;48.342;7.856;2022-10-01T17:01:40;18.23;;;5.45;;
58898;SDS011;44680;48.342;7.856;2022-10-01T17:04:07;10.95;;;4.28;;
58898;SDS011;44680;48.342;7.856;2022-10-01T17:06:35;34.92;;;10.35;;
58898;SDS011;44680;48.342;7.856;2022-10-01T17:09:00;42.75;;;9.10;;
58898;SDS011;44680;48.342;7.856;2022-10-01T17:11:25;29.10;;;6.63;;
58898;SDS011;44680;48.342;7.856;2022-10-01T17:13:52;26.88;;;7.50;;
58898;SDS011;44680;48.342;7.856;2022-10-01T17:16:17;25.15;;;6.90;;
58898;SDS011;44680;48.342;7.856;2022-10-01T17:18:44;25.35;;;8.07;;
58898;SDS011;44680;48.342;7.856;2022-10-01T17:21:09;14.18;;;4.65;;
58898;SDS011;44680;48.342;7.856;2022-10-01T17:23:34;8.88;;;3.38;;
58898;SDS011;44680;48.342;7.856;2022-10-01T17:26:00;19.48;;;6.68;;
58898;SDS011;44680;48.342;7.856;2022-10-01T17:28:29;4.28;;;2.58;;
58898;SDS011;44680;48.342;7.856;2022-10-01T17:30:55;18.98;;;6.55;;